createdAt,value
2022-12-11T00:04:47.254Z,7.0
2022-12-11T00:18:47.266Z,6.9
2022-12-11T00:32:47.276Z,6.8
2022-12-11T00:46:47.301Z,6.9
2022-12-11T01:00:47.326Z,6.7
2022-12-11T01:14:47.315Z,6.6
2022-12-11T01:28:47.311Z,6.5
2022-12-11T01:42:47.339Z,6.7
2022-12-11T01:56:47.316Z,6.6
2022-12-11T02:10:47.323Z,6.5
2022-12-11T02:24:47.324Z,6.4
2022-12-11T02:38:47.316Z,6.5
2022-12-11T02:52:47.369Z,6.4
2022-12-11T03:06:47.415Z,6.5
2022-12-11T03:20:47.364Z,5.6
2022-12-11T03:34:47.349Z,5.4
2022-12-11T03:48:47.359Z,5.4
2022-12-11T04:02:47.421Z,5.3
2022-12-11T04:16:47.371Z,5.1
2022-12-11T04:30:47.418Z,4.9
2022-12-11T04:44:47.396Z,4.8
2022-12-11T04:58:47.375Z,4.7
2022-12-11T05:12:47.389Z,4.5
2022-12-11T05:26:47.400Z,4.4
2022-12-11T05:40:47.409Z,4.4
2022-12-11T05:54:47.413Z,4.4
2022-12-11T06:08:47.424Z,4.2
2022-12-11T06:22:47.740Z,3.9
2022-12-11T06:36:47.711Z,3.8
2022-12-11T06:51:47.713Z,3.7
2022-12-11T07:06:47.874Z,3.7
2022-12-11T07:21:47.894Z,3.7
2022-12-11T07:36:47.919Z,3.6
2022-12-11T07:51:47.893Z,3.7
2022-12-11T08:06:47.963Z,3.7
2022-12-11T08:21:47.943Z,3.7
2022-12-11T08:37:47.986Z,3.9
2022-12-11T08:52:48.003Z,4.0
2022-12-11T09:07:48.097Z,4.3
2022-12-11T09:22:48.027Z,4.4
2022-12-11T09:37:48.038Z,4.5
2022-12-11T09:52:48.032Z,4.4
2022-12-11T10:07:48.098Z,4.4
2022-12-11T10:22:48.074Z,4.3
2022-12-11T10:37:48.083Z,4.5
2022-12-11T10:52:48.082Z,4.5
2022-12-11T11:07:48.224Z,4.6
2022-12-11T11:22:48.085Z,4.5
2022-12-11T11:37:48.103Z,4.6
2022-12-11T11:52:48.106Z,4.1
2022-12-11T12:07:48.169Z,3.9
2022-12-11T12:22:48.104Z,3.7
2022-12-11T12:37:48.130Z,3.5
2022-12-11T12:52:48.127Z,3.5
2022-12-11T13:08:48.113Z,3.7
2022-12-11T13:23:48.102Z,3.5
2022-12-11T13:39:48.098Z,3.2
2022-12-11T13:54:48.099Z,3.0
2022-12-11T14:09:48.105Z,3.0
2022-12-11T14:24:48.114Z,3.1
2022-12-11T14:39:48.106Z,2.8
2022-12-11T14:54:48.113Z,2.8
2022-12-11T15:09:48.121Z,2.6
2022-12-11T15:24:48.118Z,2.3
2022-12-11T15:39:48.122Z,2.2
2022-12-11T15:54:48.185Z,2.1
2022-12-11T16:08:48.156Z,2.1
2022-12-11T16:22:48.178Z,2.0
2022-12-11T16:36:48.169Z,2.1
2022-12-11T16:50:48.161Z,2.2
2022-12-11T17:04:53.613Z,2.1
2022-12-11T17:18:48.179Z,2.1
2022-12-11T17:32:48.195Z,2.2
2022-12-11T17:46:48.227Z,2.1
2022-12-11T18:00:48.177Z,2.1
2022-12-11T18:14:48.195Z,2.1
2022-12-11T18:28:48.200Z,2.0
2022-12-11T18:42:48.205Z,1.9
2022-12-11T18:56:48.186Z,1.8
2022-12-11T19:10:48.196Z,2.1
2022-12-11T19:24:48.190Z,1.9
2022-12-11T19:38:48.190Z,1.8
2022-12-11T19:52:48.227Z,1.7
2022-12-11T20:06:48.203Z,1.3
2022-12-11T20:20:48.208Z,0.8
2022-12-11T20:34:48.204Z,0.2
2022-12-11T20:48:48.205Z,-0.3
2022-12-11T21:02:48.230Z,-0.4
2022-12-11T21:16:48.285Z,-0.2
2022-12-11T21:30:48.394Z,0.2
2022-12-11T21:58:48.394Z,-0.6
2022-12-11T22:12:48.402Z,-0.6
2022-12-11T22:26:48.388Z,-0.3
2022-12-11T22:40:48.404Z,-0.4
2022-12-11T22:54:48.398Z,-0.7
2022-12-11T23:08:48.426Z,-0.9
2022-12-11T23:22:48.416Z,-1.2
2022-12-11T23:36:48.431Z,-1.4
2022-12-11T23:50:48.436Z,-1.3
